Time;durP1;ratioP1;P1;durP2;ratioP2;P2;SDS_P1;SDS_P2;PMS_P1;PMS_P2;Temp;Humidity;BMP_temperature;BMP_pressure;BME280_temperature;BME280_humidity;BME280_pressure;Samples;Min_cycle;Max_cycle;Signal;HPM_P1;HPM_P2
2023/03/14 00:01:38;;;;;;;29.15;4.13;;;;;;;;;;5074434;28;20498;-69
2023/03/14 00:04:06;;;;;;;33.13;4.22;;;;;;;;;;5074754;28;20052;-69
2023/03/14 00:06:33;;;;;;;25.35;4.57;;;;;;;;;;5082969;28;20067;-69
2023/03/14 00:09:00;;;;;;;27.52;4.15;;;;;;;;;;5057658;28;20064;-69
2023/03/14 00:11:27;;;;;;;24.50;4.63;;;;;;;;;;5083550;28;20048;-69
2023/03/14 00:13:55;;;;;;;27.48;3.92;;;;;;;;;;5080490;28;20062;-69
2023/03/14 00:16:22;;;;;;;29.20;4.57;;;;;;;;;;5077079;28;20052;-68
2023/03/14 00:18:51;;;;;;;22.98;4.53;;;;;;;;;;5057437;28;20059;-69
2023/03/14 00:21:19;;;;;;;26.73;4.13;;;;;;;;;;5087395;28;20052;-70
2023/03/14 00:23:46;;;;;;;30.02;4.60;;;;;;;;;;5063574;28;20052;-69
2023/03/14 00:26:15;;;;;;;24.95;3.65;;;;;;;;;;5085539;28;20056;-69
2023/03/14 00:28:42;;;;;;;25.17;3.55;;;;;;;;;;5068348;28;20135;-68
2023/03/14 00:31:13;;;;;;;18.08;3.10;;;;;;;;;;5090340;28;20048;-69
2023/03/14 00:33:40;;;;;;;23.27;3.60;;;;;;;;;;5085427;28;20052;-69
2023/03/14 00:36:10;;;;;;;27.05;3.47;;;;;;;;;;5089083;28;20414;-69
2023/03/14 00:38:38;;;;;;;23.30;3.30;;;;;;;;;;5083066;28;20044;-69
2023/03/14 00:41:06;;;;;;;30.45;4.07;;;;;;;;;;5084991;28;20052;-69
2023/03/14 00:43:33;;;;;;;34.13;4.60;;;;;;;;;;5085640;28;20055;-69
2023/03/14 00:46:00;;;;;;;22.63;3.40;;;;;;;;;;5089907;28;20063;-68
2023/03/14 00:48:28;;;;;;;28.90;4.38;;;;;;;;;;5064306;28;20052;-69
2023/03/14 00:50:55;;;;;;;23.73;3.85;;;;;;;;;;5092286;28;20175;-68
2023/03/14 00:53:23;;;;;;;27.48;4.32;;;;;;;;;;5089864;28;20055;-69
2023/03/14 00:55:51;;;;;;;21.02;3.60;;;;;;;;;;5090252;28;20047;-68
2023/03/14 00:58:19;;;;;;;27.10;4.40;;;;;;;;;;5089379;28;20040;-68
2023/03/14 01:00:47;;;;;;;31.00;4.40;;;;;;;;;;5087270;28;20044;-69
2023/03/14 01:03:14;;;;;;;27.67;3.78;;;;;;;;;;5084012;28;20078;-69
2023/03/14 01:05:42;;;;;;;22.20;3.40;;;;;;;;;;5083112;28;20044;-69
2023/03/14 01:08:11;;;;;;;22.55;3.38;;;;;;;;;;5080311;28;20075;-69
2023/03/14 01:10:40;;;;;;;31.77;4.07;;;;;;;;;;5081325;28;20040;-69
2023/03/14 01:13:08;;;;;;;21.58;3.13;;;;;;;;;;5083721;28;20079;-69
2023/03/14 01:15:36;;;;;;;23.20;3.75;;;;;;;;;;5089146;28;20063;-68
2023/03/14 01:18:03;;;;;;;26.52;3.30;;;;;;;;;;5084664;28;20063;-69
2023/03/14 01:20:30;;;;;;;31.70;4.78;;;;;;;;;;5083882;28;20040;-69
2023/03/14 01:22:58;;;;;;;25.75;3.25;;;;;;;;;;5085712;28;20048;-68
2023/03/14 01:25:25;;;;;;;41.80;4.35;;;;;;;;;;5085504;28;20853;-69
2023/03/14 01:27:53;;;;;;;34.40;4.28;;;;;;;;;;5085017;28;20056;-69
2023/03/14 01:30:21;;;;;;;33.95;3.58;;;;;;;;;;5081919;28;20059;-69
2023/03/14 01:32:48;;;;;;;25.77;4.07;;;;;;;;;;5086819;28;20048;-68
2023/03/14 01:35:15;;;;;;;28.63;4.40;;;;;;;;;;5087568;28;20052;-69
2023/03/14 01:37:42;;;;;;;24.55;3.80;;;;;;;;;;5086966;28;20040;-69
2023/03/14 01:40:13;;;;;;;30.15;4.75;;;;;;;;;;5081628;28;20059;-69
2023/03/14 01:42:46;;;;;;;29.33;4.15;;;;;;;;;;5087614;28;20075;-69
2023/03/14 01:45:28;;;;;;;30.30;4.90;;;;;;;;;;5088101;28;20044;-69
2023/03/14 01:47:56;;;;;;;32.80;4.63;;;;;;;;;;5084788;28;20058;-69
2023/03/14 01:50:24;;;;;;;28.70;4.50;;;;;;;;;;5082927;28;20409;-69
2023/03/14 01:52:53;;;;;;;31.38;4.43;;;;;;;;;;5089676;28;20401;-70
2023/03/14 01:55:23;;;;;;;28.70;4.13;;;;;;;;;;5083783;28;20565;-69
2023/03/14 01:57:52;;;;;;;28.08;4.32;;;;;;;;;;5077923;28;20052;-69
2023/03/14 02:00:21;;;;;;;33.30;4.32;;;;;;;;;;5085041;28;20052;-69
2023/03/14 02:02:50;;;;;;;28.05;4.07;;;;;;;;;;5075614;28;20052;-69
2023/03/14 02:05:19;;;;;;;28.65;4.30;;;;;;;;;;5082012;28;20088;-69
2023/03/14 02:07:50;;;;;;;32.35;4.82;;;;;;;;;;5085391;28;20495;-69
2023/03/14 02:10:19;;;;;;;35.45;4.63;;;;;;;;;;5087756;28;20048;-69
2023/03/14 02:12:46;;;;;;;24.85;3.60;;;;;;;;;;5084504;28;20427;-69
2023/03/14 02:15:14;;;;;;;35.65;4.05;;;;;;;;;;5079991;28;20045;-69
2023/03/14 02:17:42;;;;;;;34.95;4.45;;;;;;;;;;5077499;28;20048;-67
2023/03/14 02:20:19;;;;;;;35.72;4.65;;;;;;;;;;5072925;28;20102;-67
2023/03/14 02:22:48;;;;;;;31.90;4.43;;;;;;;;;;5083580;28;20406;-66
2023/03/14 02:25:18;;;;;;;31.95;4.38;;;;;;;;;;5073761;28;20495;-66
2023/03/14 02:27:48;;;;;;;31.65;4.03;;;;;;;;;;5085313;28;20051;-66
2023/03/14 02:30:16;;;;;;;36.58;4.50;;;;;;;;;;5083966;28;20048;-67
2023/03/14 02:32:45;;;;;;;41.75;4.88;;;;;;;;;;5087032;28;20634;-66
2023/03/14 02:35:14;;;;;;;36.63;4.60;;;;;;;;;;5087029;28;20044;-66
2023/03/14 02:37:44;;;;;;;35.60;4.35;;;;;;;;;;5086430;28;20536;-68
2023/03/14 02:40:12;;;;;;;34.97;4.57;;;;;;;;;;5082017;28;20063;-67
2023/03/14 02:42:39;;;;;;;44.85;4.32;;;;;;;;;;5085262;28;20036;-68
2023/03/14 02:45:25;;;;;;;49.88;4.65;;;;;;;;;;5080798;28;20518;-68
2023/03/14 02:47:55;;;;;;;37.92;4.72;;;;;;;;;;5084965;28;20048;-67
2023/03/14 02:50:25;;;;;;;48.22;4.68;;;;;;;;;;5079412;28;20052;-66
2023/03/14 02:52:52;;;;;;;40.22;4.75;;;;;;;;;;5088043;28;20206;-66
2023/03/14 02:55:21;;;;;;;40.40;4.80;;;;;;;;;;5087332;28;20052;-66
2023/03/14 02:57:49;;;;;;;45.35;5.20;;;;;;;;;;5079457;28;20051;-67
2023/03/14 03:00:17;;;;;;;50.45;5.55;;;;;;;;;;5075891;28;20054;-67
2023/03/14 03:02:44;;;;;;;61.03;4.43;;;;;;;;;;5082375;28;20389;-68
2023/03/14 03:05:12;;;;;;;46.85;5.95;;;;;;;;;;5075509;28;20086;-66
2023/03/14 03:07:40;;;;;;;39.70;4.47;;;;;;;;;;5075080;28;20086;-67
2023/03/14 03:10:07;;;;;;;55.03;5.68;;;;;;;;;;5078823;28;20055;-66
2023/03/14 03:12:35;;;;;;;42.95;4.82;;;;;;;;;;5082703;28;20043;-67
2023/03/14 03:15:02;;;;;;;55.08;5.43;;;;;;;;;;5079509;28;20059;-67
2023/03/14 03:17:29;;;;;;;51.72;5.22;;;;;;;;;;5076938;28;20059;-66
2023/03/14 03:19:56;;;;;;;58.88;6.85;;;;;;;;;;5079306;28;20121;-67
2023/03/14 03:22:25;;;;;;;63.40;6.40;;;;;;;;;;5080008;28;20048;-67
2023/03/14 03:24:52;;;;;;;54.50;5.18;;;;;;;;;;5083738;28;20060;-66
2023/03/14 03:27:19;;;;;;;47.28;5.68;;;;;;;;;;5084011;28;20589;-67
2023/03/14 03:29:47;;;;;;;43.55;4.78;;;;;;;;;;5072044;28;20055;-67
2023/03/14 03:32:14;;;;;;;52.00;5.43;;;;;;;;;;5081329;28;20081;-66
2023/03/14 03:34:41;;;;;;;50.25;5.43;;;;;;;;;;5082511;28;20048;-66
2023/03/14 03:37:09;;;;;;;55.28;6.05;;;;;;;;;;5084465;28;20053;-67
2023/03/14 03:39:37;;;;;;;48.90;5.32;;;;;;;;;;5087151;28;20048;-67
2023/03/14 03:42:05;;;;;;;52.85;5.90;;;;;;;;;;5084854;28;20051;-67
2023/03/14 03:44:32;;;;;;;56.20;7.05;;;;;;;;;;5078764;28;20040;-67
2023/03/14 03:46:59;;;;;;;63.10;6.57;;;;;;;;;;5086612;28;20063;-66
2023/03/14 03:49:30;;;;;;;62.17;6.75;;;;;;;;;;5086321;28;20055;-67
2023/03/14 03:51:57;;;;;;;51.17;5.22;;;;;;;;;;5086281;28;20060;-67
2023/03/14 03:54:24;;;;;;;54.50;5.22;;;;;;;;;;5078998;28;20072;-67
2023/03/14 03:56:53;;;;;;;56.17;7.82;;;;;;;;;;5081900;28;20047;-67
2023/03/14 03:59:20;;;;;;;52.50;6.15;;;;;;;;;;5062601;28;20063;-67
2023/03/14 04:01:47;;;;;;;59.22;6.25;;;;;;;;;;5060786;28;20514;-67
2023/03/14 04:04:14;;;;;;;52.03;6.25;;;;;;;;;;5086046;28;20052;-67
2023/03/14 04:06:42;;;;;;;42.35;6.18;;;;;;;;;;5088129;28;20041;-67
2023/03/14 04:09:10;;;;;;;57.47;5.63;;;;;;;;;;5082551;28;20141;-67
2023/03/14 04:11:37;;;;;;;50.25;5.47;;;;;;;;;;5088932;28;20047;-67
2023/03/14 04:14:07;;;;;;;50.58;5.95;;;;;;;;;;5087920;28;20056;-67
2023/03/14 04:16:34;;;;;;;53.65;7.55;;;;;;;;;;5088802;28;20044;-66
2023/03/14 04:19:02;;;;;;;52.03;5.18;;;;;;;;;;5087093;28;20502;-67
2023/03/14 04:21:29;;;;;;;57.13;6.78;;;;;;;;;;5085084;28;20455;-67
2023/03/14 04:23:56;;;;;;;47.25;5.63;;;;;;;;;;5080251;28;20044;-67
2023/03/14 04:26:23;;;;;;;59.83;5.95;;;;;;;;;;5084884;28;20101;-68
2023/03/14 04:28:51;;;;;;;60.30;6.60;;;;;;;;;;5082615;28;20059;-67
2023/03/14 04:31:20;;;;;;;62.50;6.72;;;;;;;;;;5078650;28;20048;-67
2023/03/14 04:33:47;;;;;;;71.32;6.90;;;;;;;;;;5078679;28;20133;-67
2023/03/14 04:36:15;;;;;;;56.47;6.53;;;;;;;;;;5089564;28;20048;-67
2023/03/14 04:38:42;;;;;;;57.58;6.65;;;;;;;;;;5088438;28;20608;-67
2023/03/14 04:41:09;;;;;;;51.88;6.32;;;;;;;;;;5076277;28;20056;-67
2023/03/14 04:43:36;;;;;;;59.38;6.82;;;;;;;;;;5079379;28;20057;-67
2023/03/14 04:46:04;;;;;;;50.50;6.35;;;;;;;;;;5076809;28;20051;-67
2023/03/14 04:48:33;;;;;;;37.33;6.07;;;;;;;;;;5080456;28;20462;-67
2023/03/14 04:51:00;;;;;;;39.33;5.47;;;;;;;;;;5076821;28;20048;-67
2023/03/14 04:53:27;;;;;;;44.75;6.00;;;;;;;;;;5067731;28;20131;-67
2023/03/14 04:55:55;;;;;;;35.85;5.70;;;;;;;;;;5086621;28;20044;-67
2023/03/14 04:58:23;;;;;;;39.50;7.85;;;;;;;;;;5079122;28;20047;-67
2023/03/14 05:00:50;;;;;;;35.90;5.00;;;;;;;;;;5059620;28;20056;-67
2023/03/14 05:03:17;;;;;;;32.45;4.78;;;;;;;;;;5062594;28;20044;-67
2023/03/14 05:05:46;;;;;;;42.38;5.65;;;;;;;;;;5084905;28;20052;-67
2023/03/14 05:08:14;;;;;;;28.65;5.20;;;;;;;;;;5078851;28;20059;-67
2023/03/14 05:10:41;;;;;;;32.85;5.82;;;;;;;;;;5080622;28;20047;-67
2023/03/14 05:13:08;;;;;;;33.20;5.82;;;;;;;;;;5083651;28;20052;-67
2023/03/14 05:15:35;;;;;;;26.13;5.47;;;;;;;;;;5082947;28;20107;-67
2023/03/14 05:18:03;;;;;;;39.95;5.85;;;;;;;;;;5084200;28;20059;-67
2023/03/14 05:20:30;;;;;;;25.58;5.47;;;;;;;;;;5087811;28;20047;-67
2023/03/14 05:22:59;;;;;;;28.10;5.45;;;;;;;;;;5079500;28;20056;-67
2023/03/14 05:25:26;;;;;;;20.27;5.03;;;;;;;;;;5083337;28;20044;-67
2023/03/14 05:27:55;;;;;;;30.42;4.55;;;;;;;;;;5087706;28;20483;-68
2023/03/14 05:30:22;;;;;;;28.38;3.85;;;;;;;;;;5083186;28;20647;-67
2023/03/14 05:32:50;;;;;;;30.27;3.67;;;;;;;;;;5082305;28;20143;-68
2023/03/14 05:35:17;;;;;;;13.23;1.98;;;;;;;;;;5086576;28;20055;-68
2023/03/14 05:37:44;;;;;;;10.88;1.45;;;;;;;;;;5086073;28;20044;-68
2023/03/14 05:40:13;;;;;;;32.15;3.13;;;;;;;;;;5086939;28;20040;-67
2023/03/14 05:42:41;;;;;;;21.23;1.80;;;;;;;;;;5083756;28;20043;-67
2023/03/14 05:45:08;;;;;;;22.20;1.40;;;;;;;;;;5086046;28;20051;-67
2023/03/14 05:47:36;;;;;;;19.52;2.33;;;;;;;;;;5066879;28;20628;-67
2023/03/14 05:50:03;;;;;;;25.00;2.03;;;;;;;;;;5067706;28;20140;-66
2023/03/14 05:52:30;;;;;;;35.83;3.80;;;;;;;;;;5085091;28;20044;-66
2023/03/14 05:54:57;;;;;;;31.13;3.60;;;;;;;;;;5083867;28;20517;-66
2023/03/14 05:57:26;;;;;;;42.85;4.57;;;;;;;;;;5063810;28;20058;-66
2023/03/14 05:59:53;;;;;;;30.25;3.58;;;;;;;;;;5081592;28;20052;-66
2023/03/14 06:02:20;;;;;;;41.47;4.35;;;;;;;;;;5084872;28;20059;-66
2023/03/14 06:04:48;;;;;;;31.00;4.07;;;;;;;;;;5079448;28;20521;-66
2023/03/14 06:07:15;;;;;;;22.98;4.05;;;;;;;;;;5083643;28;20396;-66
2023/03/14 06:09:42;;;;;;;28.15;4.50;;;;;;;;;;5083915;28;20050;-67
2023/03/14 06:12:09;;;;;;;39.30;13.77;;;;;;;;;;5084203;28;20079;-66
2023/03/14 06:14:38;;;;;;;31.13;3.65;;;;;;;;;;5065647;28;20044;-66
2023/03/14 06:17:05;;;;;;;28.67;1.60;;;;;;;;;;5087187;28;20052;-66
2023/03/14 06:19:32;;;;;;;22.58;1.58;;;;;;;;;;5084545;28;20044;-66
2023/03/14 06:22:00;;;;;;;17.70;1.50;;;;;;;;;;5089213;28;20047;-67
2023/03/14 06:24:27;;;;;;;16.60;1.60;;;;;;;;;;5075318;28;20062;-67
2023/03/14 06:26:54;;;;;;;20.45;1.30;;;;;;;;;;5080457;28;20048;-67
2023/03/14 06:29:21;;;;;;;13.15;1.45;;;;;;;;;;5087601;28;20051;-66
2023/03/14 06:31:50;;;;;;;13.60;1.17;;;;;;;;;;5078961;28;20048;-67
2023/03/14 06:34:17;;;;;;;16.50;1.52;;;;;;;;;;5085411;28;20052;-66
2023/03/14 06:36:44;;;;;;;12.60;1.10;;;;;;;;;;5083623;28;21043;-66
2023/03/14 06:39:12;;;;;;;16.08;1.02;;;;;;;;;;5085492;28;20048;-66
2023/03/14 06:41:39;;;;;;;17.02;1.27;;;;;;;;;;5081451;28;20059;-66
2023/03/14 06:44:06;;;;;;;7.63;0.73;;;;;;;;;;5080724;28;20052;-66
2023/03/14 06:46:34;;;;;;;23.00;3.22;;;;;;;;;;5080748;28;20048;-67
2023/03/14 06:49:02;;;;;;;14.82;1.30;;;;;;;;;;5077406;28;20048;-67
2023/03/14 06:51:30;;;;;;;10.80;1.02;;;;;;;;;;5079770;28;20040;-66
2023/03/14 06:53:57;;;;;;;7.57;0.73;;;;;;;;;;5079161;28;20060;-66
2023/03/14 06:56:24;;;;;;;10.40;1.00;;;;;;;;;;5081524;28;20491;-66
2023/03/14 06:58:51;;;;;;;13.63;1.23;;;;;;;;;;5084391;28;20077;-66
2023/03/14 07:01:21;;;;;;;10.75;1.13;;;;;;;;;;5083722;28;20071;-66
2023/03/14 07:03:49;;;;;;;12.45;1.05;;;;;;;;;;5082047;28;20055;-66
2023/03/14 07:06:17;;;;;;;14.55;1.58;;;;;;;;;;5084683;28;20040;-66
2023/03/14 07:08:45;;;;;;;14.73;1.35;;;;;;;;;;5080519;28;20059;-67
2023/03/14 07:11:12;;;;;;;19.02;1.40;;;;;;;;;;5086749;28;20055;-66
2023/03/14 07:13:39;;;;;;;13.63;1.02;;;;;;;;;;5077011;28;20052;-66
2023/03/14 07:16:07;;;;;;;9.30;0.93;;;;;;;;;;5080663;28;20517;-66
2023/03/14 07:18:34;;;;;;;19.05;1.45;;;;;;;;;;5072233;28;20052;-66
2023/03/14 07:21:01;;;;;;;10.70;1.40;;;;;;;;;;5086420;28;20055;-66
2023/03/14 07:23:30;;;;;;;11.65;1.15;;;;;;;;;;5085007;28;20245;-66
2023/03/14 07:25:58;;;;;;;18.95;1.88;;;;;;;;;;5081590;28;20109;-66
2023/03/14 07:28:25;;;;;;;22.85;1.73;;;;;;;;;;5072629;28;20048;-66
2023/03/14 07:30:52;;;;;;;15.05;1.80;;;;;;;;;;5085273;28;20043;-66
2023/03/14 07:33:19;;;;;;;20.58;2.38;;;;;;;;;;5081206;28;20408;-66
2023/03/14 07:35:48;;;;;;;20.45;1.63;;;;;;;;;;5080899;28;20463;-66
2023/03/14 07:38:15;;;;;;;23.25;2.30;;;;;;;;;;5083163;28;20051;-67
2023/03/14 07:40:44;;;;;;;19.83;2.33;;;;;;;;;;5083548;28;20429;-67
2023/03/14 07:43:12;;;;;;;27.08;3.80;;;;;;;;;;5082176;28;20258;-66
2023/03/14 07:45:39;;;;;;;27.00;2.40;;;;;;;;;;5084427;28;20530;-66
2023/03/14 07:48:07;;;;;;;24.55;2.05;;;;;;;;;;5082647;28;20060;-66
2023/03/14 07:50:35;;;;;;;24.67;2.60;;;;;;;;;;5082236;28;20052;-66
2023/03/14 07:53:02;;;;;;;26.35;2.88;;;;;;;;;;5067991;28;20136;-66
2023/03/14 07:55:29;;;;;;;23.02;2.58;;;;;;;;;;5083401;28;20049;-66
2023/03/14 07:57:58;;;;;;;21.50;3.42;;;;;;;;;;5081322;28;20048;-67
2023/03/14 08:00:25;;;;;;;28.88;3.00;;;;;;;;;;5085135;28;20047;-67
2023/03/14 08:02:52;;;;;;;24.50;3.33;;;;;;;;;;5080624;28;20098;-66
2023/03/14 08:05:19;;;;;;;39.15;3.72;;;;;;;;;;5078037;28;20056;-66
2023/03/14 08:07:47;;;;;;;25.65;3.05;;;;;;;;;;5078642;28;20045;-67
2023/03/14 08:10:21;;;;;;;27.95;2.88;;;;;;;;;;5082057;28;20419;-67
2023/03/14 08:12:49;;;;;;;38.90;3.30;;;;;;;;;;5064930;28;20115;-65
2023/03/14 08:15:17;;;;;;;33.13;4.10;;;;;;;;;;5083333;28;20394;-66
2023/03/14 08:17:45;;;;;;;19.08;2.42;;;;;;;;;;5061708;28;20087;-66
2023/03/14 08:20:13;;;;;;;24.95;3.13;;;;;;;;;;5083567;28;20443;-66
2023/03/14 08:22:40;;;;;;;31.65;4.40;;;;;;;;;;5079822;28;20036;-66
2023/03/14 08:25:08;;;;;;;19.92;2.30;;;;;;;;;;5080742;28;20051;-67
2023/03/14 08:27:37;;;;;;;37.72;4.30;;;;;;;;;;5081091;28;20047;-66
2023/03/14 08:30:05;;;;;;;25.48;3.83;;;;;;;;;;5083667;28;20052;-66
2023/03/14 08:32:34;;;;;;;25.77;2.97;;;;;;;;;;5085379;28;20508;-66
2023/03/14 08:35:01;;;;;;;24.02;3.83;;;;;;;;;;5083653;28;20051;-66
2023/03/14 08:37:28;;;;;;;31.70;4.35;;;;;;;;;;5086509;28;20097;-66
2023/03/14 08:39:56;;;;;;;31.92;3.38;;;;;;;;;;5081909;28;20040;-66
2023/03/14 08:42:23;;;;;;;33.92;4.60;;;;;;;;;;5078100;28;20536;-66
2023/03/14 08:44:50;;;;;;;37.25;3.88;;;;;;;;;;5081366;28;20052;-66
2023/03/14 08:47:17;;;;;;;30.73;3.88;;;;;;;;;;5084273;28;20044;-66
2023/03/14 08:49:46;;;;;;;26.25;3.47;;;;;;;;;;5087130;28;20451;-66
2023/03/14 08:52:15;;;;;;;30.15;3.35;;;;;;;;;;5088052;28;20050;-66
2023/03/14 08:54:43;;;;;;;37.10;2.95;;;;;;;;;;5082832;28;20037;-66
2023/03/14 08:57:10;;;;;;;19.65;2.58;;;;;;;;;;5088088;28;20056;-66
2023/03/14 08:59:37;;;;;;;22.00;2.45;;;;;;;;;;5071071;28;20044;-66
2023/03/14 09:02:05;;;;;;;20.95;2.10;;;;;;;;;;5080364;28;20055;-66
2023/03/14 09:04:33;;;;;;;26.27;3.53;;;;;;;;;;5084943;28;20047;-66
2023/03/14 09:07:03;;;;;;;30.98;2.83;;;;;;;;;;5070050;28;20047;-66
2023/03/14 09:09:30;;;;;;;31.27;3.30;;;;;;;;;;5089017;28;20093;-66
2023/03/14 09:11:57;;;;;;;36.72;4.85;;;;;;;;;;5086085;28;20052;-66
2023/03/14 09:14:25;;;;;;;27.80;3.42;;;;;;;;;;5079399;28;20050;-66
2023/03/14 09:16:52;;;;;;;33.58;3.42;;;;;;;;;;5087375;28;20044;-66
2023/03/14 09:19:19;;;;;;;26.08;3.67;;;;;;;;;;5089040;28;20051;-66
2023/03/14 09:21:47;;;;;;;31.75;3.20;;;;;;;;;;5089823;28;20441;-66
2023/03/14 09:24:15;;;;;;;31.00;3.53;;;;;;;;;;5086386;28;20474;-66
2023/03/14 09:26:43;;;;;;;27.08;2.78;;;;;;;;;;5069736;28;20048;-66
2023/03/14 09:29:10;;;;;;;36.20;3.20;;;;;;;;;;5077886;28;20044;-66
2023/03/14 09:31:37;;;;;;;32.38;3.70;;;;;;;;;;5089478;28;20098;-66
2023/03/14 09:34:05;;;;;;;23.48;2.83;;;;;;;;;;5090145;28;20048;-66
2023/03/14 09:36:32;;;;;;;20.88;2.40;;;;;;;;;;5089214;28;20509;-66
2023/03/14 09:38:59;;;;;;;30.17;3.30;;;;;;;;;;5084703;28;20135;-66
2023/03/14 09:41:30;;;;;;;29.92;2.72;;;;;;;;;;5083790;28;20047;-66
2023/03/14 09:44:02;;;;;;;33.85;3.25;;;;;;;;;;5081328;28;20483;-66
2023/03/14 09:46:30;;;;;;;26.13;3.15;;;;;;;;;;5081823;28;20066;-66
2023/03/14 09:48:57;;;;;;;19.17;2.70;;;;;;;;;;5078572;28;20056;-66
2023/03/14 09:51:25;;;;;;;26.17;3.10;;;;;;;;;;5079764;28;20399;-66
2023/03/14 09:53:53;;;;;;;19.25;3.85;;;;;;;;;;5083261;28;20036;-66
2023/03/14 09:56:21;;;;;;;21.98;2.22;;;;;;;;;;5065514;28;20044;-66
2023/03/14 09:58:53;;;;;;;22.20;2.33;;;;;;;;;;5077069;28;20052;-66
2023/03/14 10:01:22;;;;;;;23.77;2.35;;;;;;;;;;5084840;28;20036;-66
2023/03/14 10:03:50;;;;;;;21.17;2.22;;;;;;;;;;5081919;28;21133;-66
2023/03/14 10:06:17;;;;;;;21.20;2.35;;;;;;;;;;5087846;28;20044;-66
2023/03/14 10:08:45;;;;;;;17.73;2.22;;;;;;;;;;5085428;28;20044;-66
2023/03/14 10:11:16;;;;;;;22.17;2.40;;;;;;;;;;5080729;28;20139;-66
2023/03/14 10:13:51;;;;;;;21.05;2.60;;;;;;;;;;5082805;28;20115;-66
2023/03/14 10:16:19;;;;;;;10.48;2.00;;;;;;;;;;5084839;28;20044;-66
2023/03/14 10:18:47;;;;;;;16.10;1.77;;;;;;;;;;5082618;28;20056;-66
2023/03/14 10:21:27;;;;;;;15.80;1.70;;;;;;;;;;5079529;28;20048;-66
2023/03/14 10:23:54;;;;;;;11.93;2.05;;;;;;;;;;5085195;28;20061;-66
2023/03/14 10:26:25;;;;;;;11.40;1.65;;;;;;;;;;5084165;28;20048;-66
2023/03/14 10:28:55;;;;;;;11.30;1.65;;;;;;;;;;5085404;28;20048;-66
2023/03/14 10:31:26;;;;;;;16.10;2.03;;;;;;;;;;5086710;28;20136;-66
2023/03/14 10:34:00;;;;;;;12.93;2.33;;;;;;;;;;5068355;28;20048;-66
2023/03/14 10:36:28;;;;;;;15.50;2.35;;;;;;;;;;5069946;28;20070;-66
2023/03/14 10:38:59;;;;;;;18.50;2.17;;;;;;;;;;5084526;28;20044;-66
2023/03/14 10:41:27;;;;;;;4.40;1.15;;;;;;;;;;5085929;28;20132;-66
2023/03/14 10:43:57;;;;;;;11.70;1.48;;;;;;;;;;5087432;28;20409;-66
2023/03/14 10:46:26;;;;;;;9.43;1.45;;;;;;;;;;5080350;28;20052;-66
2023/03/14 10:48:54;;;;;;;9.95;1.20;;;;;;;;;;5082861;28;20503;-66
2023/03/14 10:51:26;;;;;;;11.82;1.58;;;;;;;;;;5084478;28;20051;-66
2023/03/14 10:53:58;;;;;;;14.50;1.52;;;;;;;;;;5082768;28;20052;-66
2023/03/14 10:56:26;;;;;;;8.02;1.30;;;;;;;;;;5079514;28;20056;-66
2023/03/14 10:58:55;;;;;;;9.23;1.30;;;;;;;;;;5083425;28;20040;-66
2023/03/14 11:01:29;;;;;;;16.25;2.28;;;;;;;;;;5083175;28;20059;-67
2023/03/14 11:03:59;;;;;;;9.68;1.30;;;;;;;;;;5084576;28;20059;-66
2023/03/14 11:06:30;;;;;;;10.65;1.30;;;;;;;;;;5079194;28;20056;-66
2023/03/14 11:09:02;;;;;;;7.60;1.00;;;;;;;;;;5088342;28;20050;-67
2023/03/14 11:11:30;;;;;;;7.75;1.27;;;;;;;;;;5085867;28;20433;-66
2023/03/14 11:14:02;;;;;;;9.60;2.95;;;;;;;;;;5080664;28;20071;-66
2023/03/14 11:16:35;;;;;;;9.70;1.33;;;;;;;;;;5084428;28;20479;-66
2023/03/14 11:19:26;;;;;;;5.65;1.05;;;;;;;;;;5080801;28;21343;-66
2023/03/14 11:21:56;;;;;;;9.60;1.50;;;;;;;;;;5082642;28;20045;-66
2023/03/14 11:24:39;;;;;;;11.40;1.77;;;;;;;;;;5080219;28;20048;-66
2023/03/14 11:27:10;;;;;;;19.23;2.35;;;;;;;;;;5082062;28;20185;-66
2023/03/14 11:29:40;;;;;;;10.30;2.08;;;;;;;;;;5084149;28;20127;-66
2023/03/14 11:32:14;;;;;;;11.55;2.03;;;;;;;;;;5081689;28;20504;-66
2023/03/14 11:34:44;;;;;;;16.50;3.78;;;;;;;;;;5085537;28;20119;-66
2023/03/14 11:37:16;;;;;;;17.10;2.00;;;;;;;;;;5084320;28;20059;-66
2023/03/14 11:39:47;;;;;;;18.52;1.98;;;;;;;;;;5087274;28;20087;-66
2023/03/14 11:42:16;;;;;;;14.95;3.35;;;;;;;;;;5083460;28;20566;-67
2023/03/14 11:44:45;;;;;;;11.95;1.45;;;;;;;;;;5064501;28;20384;-66
2023/03/14 11:47:16;;;;;;;16.17;1.92;;;;;;;;;;5082923;28;20056;-67
2023/03/14 11:49:46;;;;;;;10.02;1.90;;;;;;;;;;5084856;28;20052;-66
2023/03/14 11:52:16;;;;;;;13.07;1.77;;;;;;;;;;5087015;28;20083;-67
2023/03/14 11:54:46;;;;;;;15.05;1.70;;;;;;;;;;5084680;28;20055;-66
2023/03/14 11:57:16;;;;;;;11.20;1.88;;;;;;;;;;5079713;28;20059;-66
2023/03/14 11:59:48;;;;;;;13.13;1.88;;;;;;;;;;5083733;28;20125;-67
2023/03/14 12:02:19;;;;;;;9.25;1.83;;;;;;;;;;5080717;28;20048;-67
2023/03/14 12:04:53;;;;;;;10.27;1.23;;;;;;;;;;5078727;28;20048;-66
2023/03/14 12:07:23;;;;;;;12.27;1.90;;;;;;;;;;5077777;28;20120;-67
2023/03/14 12:09:51;;;;;;;8.85;1.25;;;;;;;;;;5078883;28;20123;-67
2023/03/14 12:12:20;;;;;;;10.80;1.27;;;;;;;;;;5084590;28;20044;-66
2023/03/14 12:14:48;;;;;;;9.23;1.05;;;;;;;;;;5081390;28;20487;-66
2023/03/14 12:17:22;;;;;;;14.00;1.40;;;;;;;;;;5079665;28;20048;-67
2023/03/14 12:19:49;;;;;;;13.85;1.70;;;;;;;;;;5082133;28;20052;-67
2023/03/14 12:22:37;;;;;;;10.40;1.25;;;;;;;;;;5087068;28;20403;-67
2023/03/14 12:25:15;;;;;;;6.85;1.52;;;;;;;;;;5078145;28;20052;-67
2023/03/14 12:27:57;;;;;;;8.73;1.50;;;;;;;;;;5087142;28;20044;-67
2023/03/14 12:30:27;;;;;;;7.10;0.93;;;;;;;;;;5087177;28;21258;-66
2023/03/14 12:33:14;;;;;;;7.20;1.30;;;;;;;;;;5089220;28;20050;-67
2023/03/14 12:35:42;;;;;;;9.07;1.63;;;;;;;;;;5082692;28;20484;-67
2023/03/14 12:38:11;;;;;;;9.70;1.58;;;;;;;;;;5089213;28;20151;-67
2023/03/14 12:40:41;;;;;;;13.98;2.13;;;;;;;;;;5083106;28;20450;-67
2023/03/14 12:43:25;;;;;;;12.02;1.75;;;;;;;;;;5083566;28;20815;-67
2023/03/14 12:46:07;;;;;;;12.23;1.85;;;;;;;;;;5090432;28;20514;-67
2023/03/14 12:48:36;;;;;;;12.30;1.70;;;;;;;;;;5085533;28;20132;-67
2023/03/14 12:51:04;;;;;;;8.98;1.50;;;;;;;;;;5071275;28;20064;-67
2023/03/14 12:53:45;;;;;;;11.77;1.50;;;;;;;;;;5088041;28;20052;-66
2023/03/14 12:56:27;;;;;;;10.73;1.45;;;;;;;;;;5089404;28;20052;-67
2023/03/14 12:59:07;;;;;;;9.10;1.42;;;;;;;;;;5083631;28;20055;-67
2023/03/14 13:01:35;;;;;;;9.32;1.50;;;;;;;;;;5085390;28;20044;-67
2023/03/14 13:04:08;;;;;;;10.77;1.35;;;;;;;;;;5091012;28;20063;-67
2023/03/14 13:06:53;;;;;;;12.90;1.50;;;;;;;;;;5086892;28;20047;-67
2023/03/14 13:09:37;;;;;;;6.50;1.40;;;;;;;;;;5082454;28;20040;-67
2023/03/14 13:12:05;;;;;;;7.25;1.20;;;;;;;;;;5081421;28;20693;-67
2023/03/14 13:14:32;;;;;;;10.20;1.30;;;;;;;;;;5089041;28;20491;-67
2023/03/14 13:17:00;;;;;;;10.15;1.90;;;;;;;;;;5086951;28;20523;-67
2023/03/14 13:19:31;;;;;;;6.90;1.30;;;;;;;;;;5087570;28;20056;-67
2023/03/14 13:22:01;;;;;;;12.32;1.55;;;;;;;;;;5085778;28;20052;-67
2023/03/14 13:24:30;;;;;;;12.15;1.70;;;;;;;;;;5087003;28;20052;-67
2023/03/14 13:26:58;;;;;;;11.10;1.65;;;;;;;;;;5087557;28;20757;-67
2023/03/14 13:29:26;;;;;;;13.63;1.95;;;;;;;;;;5082829;28;20462;-67
2023/03/14 13:31:56;;;;;;;13.98;1.60;;;;;;;;;;5084268;28;20044;-67
2023/03/14 13:34:26;;;;;;;10.70;1.42;;;;;;;;;;5083912;28;20048;-67
2023/03/14 13:36:55;;;;;;;13.55;1.80;;;;;;;;;;5084038;28;20049;-67
2023/03/14 13:39:24;;;;;;;9.30;1.40;;;;;;;;;;5090355;28;20055;-67
2023/03/14 13:41:52;;;;;;;14.18;2.42;;;;;;;;;;5084020;28;20058;-67
2023/03/14 13:44:22;;;;;;;10.00;1.63;;;;;;;;;;5082561;28;20427;-67
2023/03/14 13:46:50;;;;;;;9.15;1.52;;;;;;;;;;5086081;28;20044;-67
2023/03/14 13:49:21;;;;;;;6.78;1.60;;;;;;;;;;5087346;28;20044;-66
2023/03/14 13:51:48;;;;;;;9.77;1.73;;;;;;;;;;5086298;28;20044;-67
2023/03/14 13:54:18;;;;;;;8.40;1.40;;;;;;;;;;5086218;28;20055;-67
2023/03/14 13:56:46;;;;;;;7.20;1.40;;;;;;;;;;5082380;28;20051;-67
2023/03/14 13:59:25;;;;;;;8.30;1.20;;;;;;;;;;5088718;28;20578;-67
2023/03/14 14:01:53;;;;;;;10.07;1.92;;;;;;;;;;5085499;28;20613;-67
2023/03/14 14:04:22;;;;;;;10.40;1.25;;;;;;;;;;5082046;28;20048;-67
2023/03/14 14:06:51;;;;;;;11.43;1.25;;;;;;;;;;5079698;28;20040;-67
2023/03/14 14:09:22;;;;;;;12.13;1.70;;;;;;;;;;5070132;28;20036;-67
2023/03/14 14:11:52;;;;;;;12.88;1.67;;;;;;;;;;5068764;28;20062;-67
2023/03/14 14:14:22;;;;;;;6.18;1.60;;;;;;;;;;5085158;28;20514;-66
2023/03/14 14:16:50;;;;;;;9.13;1.77;;;;;;;;;;5084211;28;20040;-67
2023/03/14 14:19:18;;;;;;;9.75;1.85;;;;;;;;;;5085810;28;20052;-67
2023/03/14 14:21:45;;;;;;;9.65;1.92;;;;;;;;;;5081245;28;20586;-67
2023/03/14 14:24:14;;;;;;;10.77;1.88;;;;;;;;;;5087546;28;20415;-67
2023/03/14 14:26:43;;;;;;;6.82;1.75;;;;;;;;;;5080510;28;20243;-67
2023/03/14 14:29:24;;;;;;;11.10;1.92;;;;;;;;;;5082997;28;20655;-67
2023/03/14 14:32:01;;;;;;;8.63;1.65;;;;;;;;;;5083922;28;20056;-67
2023/03/14 14:34:28;;;;;;;11.77;1.80;;;;;;;;;;5079746;28;20114;-67
2023/03/14 14:36:56;;;;;;;11.32;1.80;;;;;;;;;;5081596;28;20055;-66
2023/03/14 14:39:25;;;;;;;9.73;1.48;;;;;;;;;;5083437;28;20046;-67
2023/03/14 14:41:54;;;;;;;8.57;2.15;;;;;;;;;;5080845;28;20044;-67